Time;durP1;ratioP1;P1;durP2;ratioP2;P2;SDS_P1;SDS_P2;PMS_P1;PMS_P2;Temp;Humidity;BMP_temperature;BMP_pressure;BME280_temperature;BME280_humidity;BME280_pressure;Samples;Min_cycle;Max_cycle;Signal;HPM_P1;HPM_P2
2022/03/24 00:02:21;;;;;;;5.80;5.30;;;17.90;51.40;;;;;;5050839;28;20203;-70
2022/03/24 00:04:46;;;;;;;7.65;6.43;;;17.90;51.50;;;;;;5051788;28;20220;-69
2022/03/24 00:07:12;;;;;;;5.80;5.30;;;17.90;51.40;;;;;;5051509;28;20312;-70
2022/03/24 00:09:40;;;;;;;5.93;5.32;;;17.90;51.40;;;;;;5051137;28;20260;-70
2022/03/24 00:12:06;;;;;;;6.13;5.57;;;17.80;51.40;;;;;;5051684;28;20183;-72
2022/03/24 00:14:32;;;;;;;6.50;5.90;;;17.80;51.30;;;;;;5051536;28;20661;-72
2022/03/24 00:16:57;;;;;;;6.45;5.60;;;17.80;51.40;;;;;;5050948;28;20207;-73
2022/03/24 00:19:23;;;;;;;6.38;5.78;;;17.80;51.40;;;;;;5051297;28;20174;-71
2022/03/24 00:21:49;;;;;;;6.18;5.43;;;17.80;51.30;;;;;;5051434;28;20317;-72
2022/03/24 00:24:14;;;;;;;5.72;5.22;;;17.80;51.30;;;;;;5050425;28;20630;-71
2022/03/24 00:26:40;;;;;;;6.25;5.65;;;17.80;51.30;;;;;;5051778;28;20179;-72
2022/03/24 00:29:05;;;;;;;6.68;6.07;;;17.80;51.30;;;;;;5051896;28;20181;-71
2022/03/24 00:31:31;;;;;;;5.97;5.47;;;17.80;51.30;;;;;;5051116;28;20254;-70
2022/03/24 00:33:57;;;;;;;6.43;5.93;;;17.80;51.30;;;;;;5051429;28;20546;-70
2022/03/24 00:36:26;;;;;;;6.75;6.18;;;17.70;51.30;;;;;;5051015;28;20198;-69
2022/03/24 00:38:55;;;;;;;6.70;6.03;;;17.70;51.20;;;;;;5050979;28;20198;-70
2022/03/24 00:41:20;;;;;;;6.45;5.90;;;17.70;51.20;;;;;;5051220;28;20249;-70
2022/03/24 00:43:48;;;;;;;6.38;5.78;;;17.70;51.30;;;;;;5051586;28;20725;-71
2022/03/24 00:46:18;;;;;;;5.88;5.38;;;17.70;51.20;;;;;;5051100;28;20178;-70
2022/03/24 00:48:44;;;;;;;7.18;6.57;;;17.70;51.20;;;;;;5051533;28;20190;-70
2022/03/24 00:51:09;;;;;;;6.07;5.47;;;17.70;51.20;;;;;;5051027;28;20183;-69
2022/03/24 00:53:35;;;;;;;6.35;5.75;;;17.60;51.10;;;;;;5050810;28;20540;-69
2022/03/24 00:56:00;;;;;;;8.13;6.32;;;17.60;51.20;;;;;;5051480;28;20175;-72
2022/03/24 00:58:26;;;;;;;6.95;6.35;;;17.60;51.10;;;;;;5050991;28;20659;-71
2022/03/24 01:00:55;;;;;;;6.47;5.93;;;17.60;51.10;;;;;;5050732;28;20630;-72
2022/03/24 01:03:26;;;;;;;6.40;5.90;;;17.60;51.10;;;;;;5051140;28;20229;-70
2022/03/24 01:05:52;;;;;;;6.63;5.93;;;17.60;51.10;;;;;;5054419;28;20197;-70
2022/03/24 01:08:18;;;;;;;6.53;5.95;;;17.60;51.10;;;;;;5054841;28;20207;-71
2022/03/24 01:10:43;;;;;;;6.28;5.60;;;17.60;51.10;;;;;;5055172;28;20218;-70
2022/03/24 01:13:09;;;;;;;6.13;5.63;;;17.60;51.00;;;;;;5053945;28;20221;-71
2022/03/24 01:15:35;;;;;;;6.07;5.53;;;17.60;51.10;;;;;;5054782;28;20511;-71
2022/03/24 01:18:00;;;;;;;6.65;6.05;;;17.60;51.00;;;;;;5054706;28;20211;-73
2022/03/24 01:20:30;;;;;;;7.38;6.65;;;17.60;51.10;;;;;;5053911;28;20934;-71
2022/03/24 01:22:55;;;;;;;6.60;6.00;;;17.60;51.10;;;;;;5054597;28;20646;-71
2022/03/24 01:25:24;;;;;;;7.65;6.13;;;17.50;51.00;;;;;;5054448;28;20183;-71
2022/03/24 01:27:51;;;;;;;6.03;5.53;;;17.60;51.00;;;;;;5053850;28;20610;-71
2022/03/24 01:30:17;;;;;;;6.25;5.65;;;17.50;51.10;;;;;;5054220;28;20175;-70
2022/03/24 01:32:42;;;;;;;6.05;5.55;;;17.50;50.90;;;;;;5054366;28;20182;-70
2022/03/24 01:35:08;;;;;;;7.10;6.35;;;17.50;50.90;;;;;;5053343;28;20190;-70
2022/03/24 01:37:36;;;;;;;6.18;5.68;;;17.50;50.90;;;;;;5054548;28;20214;-71
2022/03/24 01:40:03;;;;;;;5.85;5.32;;;17.50;50.90;;;;;;5054330;28;20530;-72
2022/03/24 01:42:29;;;;;;;7.20;6.07;;;17.50;50.90;;;;;;5053179;28;20179;-71
2022/03/24 01:44:56;;;;;;;6.20;5.63;;;17.50;50.90;;;;;;5052801;28;20178;-71
2022/03/24 01:47:22;;;;;;;6.57;5.97;;;17.50;50.90;;;;;;5053814;28;20179;-70
2022/03/24 01:49:48;;;;;;;5.88;5.38;;;17.50;50.90;;;;;;5053408;28;20253;-71
2022/03/24 01:52:23;;;;;;;6.00;5.50;;;17.50;50.90;;;;;;5053809;28;20198;-71
2022/03/24 01:54:49;;;;;;;6.50;5.88;;;17.50;50.90;;;;;;5053898;28;20171;-71
2022/03/24 01:57:16;;;;;;;6.55;6.05;;;17.50;50.90;;;;;;5051853;28;20225;-72
2022/03/24 01:59:41;;;;;;;6.95;5.85;;;17.40;50.80;;;;;;5053607;28;20230;-71
2022/03/24 02:02:07;;;;;;;6.43;5.82;;;17.50;50.90;;;;;;5052743;28;20171;-72
2022/03/24 02:04:37;;;;;;;6.60;5.97;;;17.50;50.90;;;;;;5053975;28;20274;-70
2022/03/24 02:07:06;;;;;;;6.38;5.78;;;17.40;50.80;;;;;;5053949;28;20301;-71
2022/03/24 02:09:32;;;;;;;6.32;5.75;;;17.40;50.80;;;;;;5053370;28;20179;-69
2022/03/24 02:12:00;;;;;;;8.05;6.18;;;17.40;50.80;;;;;;5053887;28;20198;-72
2022/03/24 02:14:28;;;;;;;7.20;6.15;;;17.40;50.80;;;;;;5053215;28;20220;-72
2022/03/24 02:16:53;;;;;;;6.63;5.93;;;17.40;50.80;;;;;;5052899;28;20217;-72
2022/03/24 02:19:22;;;;;;;6.03;5.50;;;17.40;51.40;;;;;;5053539;28;20175;-72
2022/03/24 02:21:48;;;;;;;6.30;5.70;;;17.40;50.80;;;;;;5053709;28;20206;-70
2022/03/24 02:24:14;;;;;;;6.20;5.70;;;17.40;50.70;;;;;;5052652;28;20259;-71
2022/03/24 02:26:42;;;;;;;7.22;5.82;;;17.40;50.80;;;;;;5053415;28;20179;-72
2022/03/24 02:29:10;;;;;;;6.53;5.93;;;17.40;50.80;;;;;;5052920;28;20316;-71
2022/03/24 02:31:38;;;;;;;6.90;6.20;;;17.40;50.80;;;;;;5052536;28;20651;-71
2022/03/24 02:36:49;;;;;;;6.30;5.70;;;17.30;50.70;;;;;;5053262;28;20210;-70
2022/03/24 02:39:14;;;;;;;6.90;5.60;;;17.30;50.70;;;;;;5052205;28;20168;-72
2022/03/24 02:42:02;;;;;;;6.28;5.60;;;17.30;50.70;;;;;;5053300;28;20183;-71
2022/03/24 02:44:30;;;;;;;5.82;5.32;;;17.30;50.70;;;;;;5052371;28;20179;-71
2022/03/24 02:46:56;;;;;;;6.43;5.82;;;17.30;50.70;;;;;;5053077;28;20179;-71
2022/03/24 02:49:25;;;;;;;6.60;5.90;;;17.30;50.70;;;;;;5052785;28;20526;-70
2022/03/24 02:51:54;;;;;;;6.22;5.63;;;17.30;50.70;;;;;;5052397;28;20190;-72
2022/03/24 02:54:20;;;;;;;6.28;5.68;;;17.30;50.70;;;;;;5052913;28;20175;-72
2022/03/24 02:56:45;;;;;;;6.15;5.65;;;17.30;51.40;;;;;;5053015;28;20578;-72
2022/03/24 02:59:12;;;;;;;7.47;5.97;;;17.30;50.70;;;;;;5051735;28;20233;-74
2022/03/24 03:01:41;;;;;;;5.97;5.45;;;17.30;50.70;;;;;;5052862;28;20182;-72
2022/03/24 03:04:06;;;;;;;6.60;5.35;;;17.30;50.80;;;;;;5052137;28;20622;-72
2022/03/24 03:06:35;;;;;;;6.53;5.55;;;17.20;50.60;;;;;;5051769;28;20205;-70
2022/03/24 03:09:01;;;;;;;6.00;5.50;;;17.20;50.60;;;;;;5052941;28;20171;-70
2022/03/24 03:11:27;;;;;;;6.60;5.82;;;17.20;50.60;;;;;;5052415;28;20207;-71
2022/03/24 03:13:53;;;;;;;6.68;5.70;;;17.20;50.60;;;;;;5050589;28;20178;-71
2022/03/24 03:16:19;;;;;;;5.88;5.38;;;17.20;50.70;;;;;;5052138;28;20182;-72
2022/03/24 03:18:44;;;;;;;5.75;5.25;;;17.20;50.60;;;;;;5052445;28;20167;-71
2022/03/24 03:21:10;;;;;;;7.55;6.00;;;17.20;50.60;;;;;;5051284;28;20224;-72
2022/03/24 03:23:39;;;;;;;6.78;5.82;;;17.20;50.60;;;;;;5052407;28;20638;-71
2022/03/24 03:26:11;;;;;;;6.07;5.47;;;17.20;50.60;;;;;;5052218;28;20258;-72
2022/03/24 03:28:37;;;;;;;6.18;5.57;;;17.20;50.60;;;;;;5050900;28;20578;-70
2022/03/24 03:31:05;;;;;;;5.90;5.15;;;17.20;50.60;;;;;;5052300;28;20217;-71
2022/03/24 03:33:32;;;;;;;6.30;5.70;;;17.10;50.50;;;;;;5051229;28;20182;-70
2022/03/24 03:36:00;;;;;;;6.35;5.78;;;17.10;50.60;;;;;;5051773;28;20583;-71
2022/03/24 03:38:26;;;;;;;7.65;5.95;;;17.10;50.60;;;;;;5051438;28;20283;-71
2022/03/24 03:40:52;;;;;;;6.28;5.70;;;17.10;50.60;;;;;;5051101;28;20183;-71
2022/03/24 03:43:18;;;;;;;5.20;4.70;;;17.10;50.60;;;;;;5051572;28;20236;-72
2022/03/24 03:45:44;;;;;;;7.35;6.10;;;17.10;50.60;;;;;;5051865;28;20175;-70
2022/03/24 03:48:12;;;;;;;6.90;6.30;;;17.10;50.60;;;;;;5050607;28;20266;-70
2022/03/24 03:50:38;;;;;;;6.57;5.93;;;17.10;50.60;;;;;;5052039;28;20195;-70
2022/03/24 03:53:03;;;;;;;7.03;6.32;;;17.10;50.50;;;;;;5052012;28;20186;-71
2022/03/24 03:55:30;;;;;;;6.75;6.03;;;17.10;50.60;;;;;;5050951;28;20191;-73
2022/03/24 03:57:55;;;;;;;6.47;5.85;;;17.10;50.50;;;;;;5051490;28;20708;-73
2022/03/24 04:03:06;;;;;;;7.13;6.22;;;17.10;50.50;;;;;;5050791;28;20203;-72
2022/03/24 04:05:32;;;;;;;6.35;5.68;;;17.10;50.60;;;;;;5051499;28;20641;-71
2022/03/24 04:07:58;;;;;;;7.13;6.05;;;17.00;50.50;;;;;;5051523;28;20701;-71
2022/03/24 04:10:27;;;;;;;6.50;5.90;;;17.00;50.50;;;;;;5050658;28;20185;-71
2022/03/24 04:12:55;;;;;;;6.65;5.82;;;17.00;50.50;;;;;;5051694;28;20182;-72
2022/03/24 04:15:21;;;;;;;6.45;5.85;;;17.00;50.50;;;;;;5051182;28;20688;-70
2022/03/24 04:17:46;;;;;;;6.13;5.30;;;17.00;50.50;;;;;;5051955;28;20215;-72
2022/03/24 04:20:13;;;;;;;6.50;5.90;;;17.00;50.50;;;;;;5051423;28;20179;-71
2022/03/24 04:22:39;;;;;;;6.35;5.75;;;17.00;50.50;;;;;;5050868;28;20592;-71
2022/03/24 04:25:05;;;;;;;6.10;5.50;;;17.00;50.50;;;;;;5051685;28;20217;-70
2022/03/24 04:27:30;;;;;;;6.88;6.20;;;17.00;50.50;;;;;;5051511;28;20229;-71
2022/03/24 04:29:56;;;;;;;5.93;5.30;;;17.00;50.50;;;;;;5050858;28;20171;-72
2022/03/24 04:32:21;;;;;;;6.80;6.15;;;17.00;50.50;;;;;;5051493;28;20171;-69
2022/03/24 04:34:47;;;;;;;6.15;5.63;;;16.90;50.50;;;;;;5051690;28;20171;-69
2022/03/24 04:37:12;;;;;;;6.22;5.55;;;17.00;50.50;;;;;;5050733;28;20238;-71
2022/03/24 04:39:38;;;;;;;7.57;6.82;;;17.00;50.50;;;;;;5055041;28;20167;-70
2022/03/24 04:42:06;;;;;;;6.72;5.95;;;16.90;50.40;;;;;;5055484;28;20177;-72
2022/03/24 04:44:32;;;;;;;6.43;5.88;;;16.90;50.40;;;;;;5054615;28;20229;-70
2022/03/24 04:46:58;;;;;;;6.07;5.50;;;16.90;50.40;;;;;;5055440;28;20179;-70
2022/03/24 04:49:23;;;;;;;6.63;6.03;;;16.90;50.40;;;;;;5054990;28;20189;-70
2022/03/24 04:51:49;;;;;;;6.15;5.55;;;16.90;50.40;;;;;;5054672;28;20634;-69
2022/03/24 04:54:14;;;;;;;6.70;6.10;;;16.90;50.40;;;;;;5055031;28;20171;-71
2022/03/24 04:56:40;;;;;;;8.32;6.18;;;16.90;50.50;;;;;;5055278;28;20195;-71
2022/03/24 04:59:05;;;;;;;6.13;5.53;;;16.90;50.40;;;;;;5054056;28;20313;-72
2022/03/24 05:01:31;;;;;;;6.78;6.15;;;16.90;50.40;;;;;;5055368;28;20182;-71
2022/03/24 05:03:57;;;;;;;5.63;5.13;;;16.90;50.40;;;;;;5055273;28;20241;-72
2022/03/24 05:06:22;;;;;;;6.28;5.68;;;16.90;50.40;;;;;;5054178;28;20183;-71
2022/03/24 05:08:48;;;;;;;6.80;6.20;;;16.90;50.40;;;;;;5055086;28;20176;-69
2022/03/24 05:11:13;;;;;;;7.05;6.35;;;16.90;50.40;;;;;;5054929;28;20171;-73
2022/03/24 05:13:39;;;;;;;6.45;5.82;;;16.80;50.40;;;;;;5054361;28;20178;-72
2022/03/24 05:16:04;;;;;;;6.53;5.93;;;16.90;50.40;;;;;;5055178;28;20178;-72
2022/03/24 05:18:30;;;;;;;7.38;6.75;;;16.80;50.30;;;;;;5054561;28;20218;-72
2022/03/24 05:20:55;;;;;;;7.05;6.07;;;16.80;50.30;;;;;;5054401;28;20167;-72
2022/03/24 05:23:21;;;;;;;6.38;5.78;;;16.80;50.30;;;;;;5054784;28;20218;-72
2022/03/24 05:25:49;;;;;;;6.90;6.20;;;16.80;50.30;;;;;;5054743;28;20171;-71
2022/03/24 05:28:15;;;;;;;6.63;6.03;;;16.80;50.30;;;;;;5054502;28;20178;-72
2022/03/24 05:30:41;;;;;;;6.50;5.90;;;16.80;50.30;;;;;;5054817;28;20175;-71
2022/03/24 05:33:07;;;;;;;6.05;5.55;;;16.80;50.30;;;;;;5053438;28;20186;-71
2022/03/24 05:35:35;;;;;;;6.90;6.28;;;16.80;50.20;;;;;;5054472;28;20673;-71
2022/03/24 05:38:04;;;;;;;6.43;5.93;;;16.80;50.20;;;;;;5054585;28;20210;-73
2022/03/24 05:40:29;;;;;;;6.53;5.93;;;16.70;50.10;;;;;;5053533;28;20193;-70
2022/03/24 05:42:55;;;;;;;6.45;5.95;;;16.70;50.10;;;;;;5054345;28;20657;-73
2022/03/24 05:45:20;;;;;;;6.80;6.15;;;16.70;50.10;;;;;;5054000;28;20626;-71
2022/03/24 05:47:46;;;;;;;6.25;5.57;;;16.70;50.10;;;;;;5053933;28;20175;-70
2022/03/24 05:50:14;;;;;;;7.05;6.45;;;16.70;50.20;;;;;;5053321;28;20220;-70
2022/03/24 05:52:40;;;;;;;6.65;6.05;;;16.70;50.10;;;;;;5054152;28;20266;-71
2022/03/24 05:55:07;;;;;;;6.15;5.55;;;16.70;50.70;;;;;;5053235;28;20679;-73
2022/03/24 05:57:32;;;;;;;6.57;5.95;;;16.70;50.10;;;;;;5053964;28;20211;-72
2022/03/24 05:59:58;;;;;;;7.05;6.45;;;16.70;50.10;;;;;;5053937;28;20314;-75
2022/03/24 06:02:24;;;;;;;7.28;6.55;;;16.70;50.10;;;;;;5053314;28;20179;-72
2022/03/24 06:04:50;;;;;;;6.75;6.10;;;16.70;50.10;;;;;;5054175;28;20168;-71
2022/03/24 06:07:17;;;;;;;6.90;6.28;;;16.70;50.00;;;;;;5052597;28;20225;-71
2022/03/24 06:09:42;;;;;;;7.43;6.43;;;16.70;50.00;;;;;;5053078;28;20183;-71
2022/03/24 06:12:09;;;;;;;7.28;6.63;;;16.70;50.00;;;;;;5053418;28;20261;-72
2022/03/24 06:14:36;;;;;;;6.68;6.07;;;16.70;50.00;;;;;;5052563;28;20171;-72
2022/03/24 06:17:02;;;;;;;6.22;5.72;;;16.70;50.00;;;;;;5052923;28;20558;-73
2022/03/24 06:19:28;;;;;;;6.88;6.18;;;16.70;50.00;;;;;;5053009;28;20194;-72
2022/03/24 06:21:53;;;;;;;6.97;6.28;;;16.70;50.00;;;;;;5053547;28;20175;-73
2022/03/24 06:24:19;;;;;;;7.05;6.35;;;16.70;50.00;;;;;;5052405;28;20642;-73
2022/03/24 06:26:44;;;;;;;7.25;6.65;;;16.70;50.00;;;;;;5053704;28;20225;-72
2022/03/24 06:29:12;;;;;;;6.93;6.32;;;16.70;50.00;;;;;;5052671;28;20253;-71
2022/03/24 06:31:39;;;;;;;7.07;6.38;;;16.70;49.90;;;;;;5053430;28;20259;-71
2022/03/24 06:34:05;;;;;;;7.22;6.63;;;16.70;49.90;;;;;;5053328;28;20266;-71
2022/03/24 06:36:30;;;;;;;7.40;6.70;;;16.70;49.90;;;;;;5052000;28;20270;-69
2022/03/24 06:38:56;;;;;;;6.95;6.32;;;16.70;50.00;;;;;;5053062;28;20184;-69
2022/03/24 06:41:22;;;;;;;6.68;6.18;;;16.70;49.90;;;;;;5052874;28;20175;-69
2022/03/24 06:43:52;;;;;;;7.13;6.07;;;16.70;49.90;;;;;;5052580;28;20257;-69
2022/03/24 06:46:18;;;;;;;6.93;6.30;;;16.70;49.80;;;;;;5052765;28;20182;-70
2022/03/24 06:48:44;;;;;;;7.00;6.30;;;16.70;49.80;;;;;;5052923;28;20607;-70
2022/03/24 06:51:09;;;;;;;6.95;6.35;;;16.70;49.80;;;;;;5052071;28;20178;-69
2022/03/24 06:53:35;;;;;;;7.05;6.38;;;16.70;49.80;;;;;;5052697;28;20171;-68
2022/03/24 06:56:00;;;;;;;7.38;6.78;;;16.80;49.80;;;;;;5052875;28;20183;-71
2022/03/24 06:58:26;;;;;;;7.25;6.50;;;16.80;49.80;;;;;;5051584;28;20725;-70
2022/03/24 07:00:51;;;;;;;6.50;5.90;;;16.80;49.70;;;;;;5052194;28;20268;-71
2022/03/24 07:03:17;;;;;;;7.78;7.07;;;16.80;49.20;;;;;;5051526;28;20564;-71
2022/03/24 07:05:42;;;;;;;7.07;6.38;;;16.90;49.00;;;;;;5052097;28;20178;-68
2022/03/24 07:08:11;;;;;;;6.38;5.78;;;16.90;48.80;;;;;;5052262;28;20250;-69
2022/03/24 07:10:36;;;;;;;7.00;6.30;;;16.90;49.00;;;;;;5052581;28;20187;-73
2022/03/24 07:13:02;;;;;;;8.25;6.75;;;17.00;49.10;;;;;;5051996;28;20270;-73
2022/03/24 07:15:28;;;;;;;7.35;6.45;;;17.00;49.50;;;;;;5052031;28;20322;-72
2022/03/24 07:17:54;;;;;;;7.32;6.63;;;17.00;49.50;;;;;;5052202;28;20743;-74
2022/03/24 07:20:19;;;;;;;7.05;6.38;;;17.10;49.60;;;;;;5051277;28;20258;-74
2022/03/24 07:22:45;;;;;;;6.93;6.22;;;17.10;49.70;;;;;;5052071;28;20178;-73
2022/03/24 07:25:11;;;;;;;8.27;6.43;;;17.10;49.60;;;;;;5051787;28;20205;-74
2022/03/24 07:27:37;;;;;;;6.65;5.95;;;17.10;49.80;;;;;;5052120;28;20183;-73
2022/03/24 07:30:06;;;;;;;6.80;6.18;;;17.10;50.10;;;;;;5052784;28;20179;-72
2022/03/24 07:32:32;;;;;;;7.25;6.55;;;17.10;49.60;;;;;;5051278;28;20191;-70
2022/03/24 07:34:58;;;;;;;7.40;6.70;;;17.10;49.00;;;;;;5052430;28;20175;-69
2022/03/24 07:37:23;;;;;;;8.18;7.28;;;17.20;49.00;;;;;;5051474;28;20253;-70
2022/03/24 07:39:52;;;;;;;7.07;6.47;;;17.30;49.00;;;;;;5051348;28;20203;-72
2022/03/24 07:42:18;;;;;;;7.28;6.68;;;17.50;49.00;;;;;;5051321;28;20629;-69
2022/03/24 07:44:44;;;;;;;6.93;6.22;;;17.60;48.90;;;;;;5052044;28;20255;-71
2022/03/24 07:47:09;;;;;;;7.05;6.35;;;17.90;48.80;;;;;;5051078;28;20244;-72
2022/03/24 07:49:35;;;;;;;7.30;5.65;;;18.10;48.60;;;;;;5051790;28;20171;-74
2022/03/24 07:52:02;;;;;;;8.23;6.15;;;18.40;48.20;;;;;;5051627;28;20233;-72
2022/03/24 07:54:48;;;;;;;6.60;5.90;;;18.70;47.60;;;;;;5050756;28;20183;-70
2022/03/24 07:57:14;;;;;;;10.55;6.85;;;19.00;47.20;;;;;;5050884;28;20229;-74
2022/03/24 07:59:42;;;;;;;7.25;5.85;;;19.10;46.80;;;;;;5050768;28;20636;-76
2022/03/24 08:02:08;;;;;;;7.25;5.95;;;19.20;46.60;;;;;;5050326;28;20174;-75
2022/03/24 08:04:34;;;;;;;7.03;6.18;;;19.30;46.50;;;;;;5051055;28;20162;-73
2022/03/24 08:06:59;;;;;;;7.05;6.35;;;19.20;46.40;;;;;;5052115;28;20191;-73
2022/03/24 08:09:25;;;;;;;6.57;5.97;;;19.20;46.30;;;;;;5050968;28;20819;-73
2022/03/24 08:11:50;;;;;;;7.20;6.45;;;19.10;46.50;;;;;;5051565;28;20203;-73
2022/03/24 08:14:16;;;;;;;7.07;6.35;;;19.10;46.50;;;;;;5054170;28;20242;-72
2022/03/24 08:16:41;;;;;;;6.60;6.00;;;19.00;46.60;;;;;;5054999;28;20301;-72
2022/03/24 08:19:07;;;;;;;8.77;6.75;;;19.00;46.70;;;;;;5055138;28;20231;-73
2022/03/24 08:21:32;;;;;;;6.10;5.50;;;18.90;46.70;;;;;;5055363;28;20658;-73
2022/03/24 08:23:58;;;;;;;8.77;6.15;;;18.80;46.80;;;;;;5054865;28;20183;-69
2022/03/24 08:26:23;;;;;;;6.80;5.80;;;18.80;46.90;;;;;;5055251;28;20175;-74
2022/03/24 08:28:49;;;;;;;7.30;6.55;;;18.70;47.00;;;;;;5054906;28;20175;-74
2022/03/24 08:31:14;;;;;;;8.43;7.05;;;18.70;47.00;;;;;;5055120;28;20179;-72
2022/03/24 08:33:40;;;;;;;8.68;7.28;;;18.60;47.10;;;;;;5055269;28;20197;-72
2022/03/24 08:36:07;;;;;;;9.73;7.07;;;18.50;47.10;;;;;;5054762;28;20178;-72
2022/03/24 08:38:32;;;;;;;7.53;6.50;;;18.50;47.20;;;;;;5055294;28;20269;-72
2022/03/24 08:40:58;;;;;;;8.50;6.80;;;18.40;47.20;;;;;;5055734;28;20235;-73
2022/03/24 08:43:24;;;;;;;8.05;6.80;;;18.40;47.30;;;;;;5054351;28;20614;-72
2022/03/24 08:45:49;;;;;;;8.18;7.15;;;18.40;47.30;;;;;;5055102;28;20565;-72
2022/03/24 08:48:15;;;;;;;7.55;6.85;;;18.30;47.40;;;;;;5054512;28;20194;-71
2022/03/24 08:50:41;;;;;;;9.70;6.72;;;18.40;47.40;;;;;;5054726;28;20179;-72
2022/03/24 08:53:06;;;;;;;7.28;6.57;;;18.40;47.60;;;;;;5054658;28;20639;-71
2022/03/24 08:55:32;;;;;;;7.78;6.35;;;18.30;47.60;;;;;;5055141;28;20187;-72
2022/03/24 08:57:58;;;;;;;7.65;6.53;;;18.30;47.60;;;;;;5054112;28;20677;-71
2022/03/24 09:00:23;;;;;;;7.40;6.50;;;18.30;47.60;;;;;;5054639;28;20293;-72
2022/03/24 09:02:51;;;;;;;8.18;6.38;;;18.30;47.70;;;;;;5054615;28;20202;-73
2022/03/24 09:05:16;;;;;;;7.10;6.07;;;18.40;47.80;;;;;;5054110;28;20179;-73
2022/03/24 09:07:42;;;;;;;7.00;5.80;;;18.40;47.80;;;;;;5054633;28;20292;-73
2022/03/24 09:10:10;;;;;;;7.05;6.35;;;18.40;47.70;;;;;;5054584;28;20585;-74
2022/03/24 09:12:37;;;;;;;8.13;6.47;;;18.50;47.70;;;;;;5054019;28;20179;-74
2022/03/24 09:15:09;;;;;;;7.85;6.05;;;18.50;47.70;;;;;;5054668;28;20189;-74
2022/03/24 09:17:35;;;;;;;8.63;5.85;;;18.50;47.70;;;;;;5054718;28;20712;-73
2022/03/24 09:20:04;;;;;;;6.68;6.00;;;18.50;47.70;;;;;;5053825;28;20679;-75
2022/03/24 09:22:30;;;;;;;7.30;6.00;;;18.50;47.70;;;;;;5054129;28;20183;-74
2022/03/24 09:24:56;;;;;;;6.65;6.05;;;18.50;47.60;;;;;;5053127;28;20217;-74
2022/03/24 09:27:22;;;;;;;7.40;6.50;;;18.50;47.70;;;;;;5053909;28;20203;-74
2022/03/24 09:29:49;;;;;;;5.95;5.35;;;18.50;47.70;;;;;;5054441;28;20199;-74
2022/03/24 09:32:16;;;;;;;6.22;5.68;;;18.50;47.70;;;;;;5053419;28;20172;-72
2022/03/24 09:34:42;;;;;;;6.95;5.53;;;18.50;47.60;;;;;;5054402;28;20202;-73
2022/03/24 09:37:08;;;;;;;6.25;5.65;;;18.50;47.60;;;;;;5053781;28;20234;-73
2022/03/24 09:39:34;;;;;;;7.30;5.50;;;18.50;47.60;;;;;;5053422;28;20175;-73
2022/03/24 09:41:59;;;;;;;6.40;5.80;;;18.50;47.60;;;;;;5054313;28;20219;-73
2022/03/24 09:44:25;;;;;;;7.07;6.38;;;18.50;47.60;;;;;;5053803;28;20187;-73
2022/03/24 09:46:50;;;;;;;5.95;5.35;;;18.60;47.70;;;;;;5053315;28;20206;-73
2022/03/24 09:49:16;;;;;;;7.13;5.60;;;18.60;47.70;;;;;;5054085;28;20190;-72
2022/03/24 09:51:43;;;;;;;6.78;6.18;;;18.60;47.60;;;;;;5054101;28;20187;-73
2022/03/24 09:54:10;;;;;;;6.40;5.80;;;18.60;47.60;;;;;;5053020;28;20175;-74
2022/03/24 09:56:35;;;;;;;7.13;6.18;;;18.60;47.60;;;;;;5053952;28;20250;-73
2022/03/24 09:59:01;;;;;;;6.68;5.80;;;18.60;47.60;;;;;;5053493;28;20334;-75
2022/03/24 10:01:27;;;;;;;6.05;5.45;;;18.60;47.60;;;;;;5053011;28;20197;-73
2022/03/24 10:04:21;;;;;;;5.95;5.43;;;18.60;47.60;;;;;;5054004;28;20190;-74
2022/03/24 10:07:05;;;;;;;7.38;6.00;;;18.60;47.60;;;;;;5053929;28;20207;-72
2022/03/24 10:09:37;;;;;;;7.43;5.28;;;18.60;47.60;;;;;;5053096;28;20167;-73
2022/03/24 10:12:06;;;;;;;6.13;5.43;;;18.70;47.60;;;;;;5053933;28;20178;-76
2022/03/24 10:14:32;;;;;;;6.70;5.93;;;18.70;47.60;;;;;;5052905;28;20270;-75
2022/03/24 10:17:10;;;;;;;5.85;5.35;;;18.70;47.50;;;;;;5053508;28;20227;-74
2022/03/24 10:19:36;;;;;;;5.40;4.90;;;18.70;47.50;;;;;;5053663;28;20532;-75
2022/03/24 10:22:08;;;;;;;6.53;5.72;;;18.70;47.50;;;;;;5052824;28;20664;-75
2022/03/24 10:24:39;;;;;;;7.13;5.70;;;18.70;47.40;;;;;;5053664;28;20266;-74
2022/03/24 10:27:04;;;;;;;6.35;4.80;;;18.70;47.40;;;;;;5053525;28;20197;-75
2022/03/24 10:29:32;;;;;;;7.72;5.60;;;18.70;47.30;;;;;;5052323;28;20546;-73
2022/03/24 10:32:01;;;;;;;6.25;5.63;;;18.80;47.30;;;;;;5053526;28;20187;-74
2022/03/24 10:34:37;;;;;;;7.30;5.07;;;18.80;47.40;;;;;;5052975;28;20638;-73
2022/03/24 10:37:07;;;;;;;5.72;5.18;;;18.80;47.30;;;;;;5052543;28;20250;-73
2022/03/24 10:39:34;;;;;;;5.88;5.20;;;18.80;47.30;;;;;;5053234;28;20191;-73
2022/03/24 10:42:23;;;;;;;5.25;4.72;;;18.80;47.30;;;;;;5053402;28;20179;-74
2022/03/24 10:45:17;;;;;;;5.97;5.43;;;18.80;47.30;;;;;;5051743;28;20256;-73
2022/03/24 10:47:49;;;;;;;5.72;4.90;;;18.80;47.30;;;;;;5053029;28;20654;-72
2022/03/24 10:50:21;;;;;;;5.40;4.90;;;18.80;47.20;;;;;;5051932;28;20190;-73
2022/03/24 10:52:47;;;;;;;5.78;5.20;;;18.80;47.20;;;;;;5052941;28;20223;-72
2022/03/24 10:55:14;;;;;;;5.50;5.00;;;18.90;47.20;;;;;;5052518;28;20179;-74
2022/03/24 10:57:39;;;;;;;6.25;5.10;;;18.90;47.20;;;;;;5052552;28;20215;-73
2022/03/24 11:00:05;;;;;;;5.40;4.82;;;18.90;47.20;;;;;;5052667;28;20650;-72
2022/03/24 11:02:31;;;;;;;5.50;5.00;;;18.90;47.20;;;;;;5052326;28;20181;-73
2022/03/24 11:05:12;;;;;;;6.78;5.13;;;18.90;47.20;;;;;;5052056;28;20175;-73
2022/03/24 11:07:38;;;;;;;5.60;5.10;;;18.90;47.10;;;;;;5053036;28;20626;-73
2022/03/24 11:10:13;;;;;;;5.32;4.75;;;18.90;47.20;;;;;;5051452;28;20286;-74
2022/03/24 11:12:39;;;;;;;5.07;4.65;;;18.90;47.10;;;;;;5052067;28;20175;-74
2022/03/24 11:15:07;;;;;;;6.20;5.65;;;19.00;47.20;;;;;;5051978;28;20240;-75
2022/03/24 11:17:38;;;;;;;5.18;4.68;;;19.00;47.10;;;;;;5052005;28;20222;-74
2022/03/24 11:20:14;;;;;;;5.88;4.93;;;19.00;47.10;;;;;;5052559;28;20191;-74
2022/03/24 11:22:49;;;;;;;5.38;4.57;;;19.00;47.40;;;;;;5052445;28;20529;-74
2022/03/24 11:25:14;;;;;;;5.43;4.80;;;19.00;47.00;;;;;;5053181;28;20549;-73
2022/03/24 11:27:40;;;;;;;6.82;5.20;;;19.00;47.00;;;;;;5052482;28;20183;-73
2022/03/24 11:30:07;;;;;;;5.50;4.97;;;19.00;47.00;;;;;;5052019;28;20182;-73
2022/03/24 11:32:37;;;;;;;5.18;4.30;;;19.00;47.00;;;;;;5051372;28;20293;-72
2022/03/24 11:35:06;;;;;;;5.20;4.70;;;19.10;47.00;;;;;;5052206;28;20687;-73
2022/03/24 11:37:31;;;;;;;5.93;5.10;;;19.10;47.00;;;;;;5052408;28;20217;-73
2022/03/24 11:40:13;;;;;;;5.03;4.53;;;19.10;46.90;;;;;;5050242;28;20171;-73
2022/03/24 11:42:47;;;;;;;5.53;5.05;;;19.10;46.90;;;;;;5052153;28;20253;-71
2022/03/24 11:45:19;;;;;;;5.05;4.55;;;19.10;46.80;;;;;;5034375;28;20183;-73
2022/03/24 11:48:05;;;;;;;6.00;4.90;;;19.10;46.80;;;;;;5050759;28;20182;-71
2022/03/24 11:50:42;;;;;;;7.70;5.18;;;19.20;46.80;;;;;;5051937;28;20258;-71
2022/03/24 11:53:25;;;;;;;5.10;4.55;;;19.20;46.60;;;;;;5050993;28;20182;-73
2022/03/24 11:56:17;;;;;;;5.70;4.72;;;19.20;46.70;;;;;;5052069;28;20194;-74
2022/03/24 11:58:59;;;;;;;4.90;4.50;;;19.20;46.60;;;;;;5050268;28;20237;-74
2022/03/24 12:01:29;;;;;;;4.88;4.28;;;19.20;46.60;;;;;;5050702;28;20197;-69
2022/03/24 12:03:56;;;;;;;8.82;5.13;;;19.30;47.40;;;;;;5050395;28;20175;-72
2022/03/24 12:06:45;;;;;;;6.93;4.85;;;19.30;46.70;;;;;;5051352;28;20254;-72
2022/03/24 12:09:18;;;;;;;6.97;5.05;;;19.30;46.70;;;;;;5048021;28;20274;-71
2022/03/24 12:11:44;;;;;;;5.95;4.85;;;19.30;46.70;;;;;;5051720;28;20556;-73
2022/03/24 12:14:11;;;;;;;6.47;4.85;;;19.30;46.70;;;;;;5050906;28;20206;-70
2022/03/24 12:16:40;;;;;;;6.70;4.40;;;19.40;46.80;;;;;;5051651;28;20207;-71
2022/03/24 12:19:41;;;;;;;5.93;4.30;;;19.40;46.70;;;;;;5051383;28;20604;-71
2022/03/24 12:22:25;;;;;;;6.75;4.60;;;19.40;46.70;;;;;;5050520;28;20192;-74
2022/03/24 12:25:00;;;;;;;6.45;4.70;;;19.40;46.70;;;;;;5051404;28;20170;-72
2022/03/24 12:27:33;;;;;;;6.00;4.63;;;19.50;46.60;;;;;;5051255;28;20288;-73
2022/03/24 12:30:12;;;;;;;6.70;4.85;;;19.40;46.50;;;;;;5050949;28;20217;-72
2022/03/24 12:32:38;;;;;;;6.90;4.20;;;19.40;46.50;;;;;;5051270;28;20174;-67
2022/03/24 12:35:04;;;;;;;5.07;4.57;;;19.50;46.60;;;;;;5050561;28;20646;-68
2022/03/24 12:37:35;;;;;;;8.23;4.57;;;19.50;46.70;;;;;;5050851;28;20234;-67
2022/03/24 12:40:09;;;;;;;7.03;4.55;;;19.50;46.80;;;;;;5051366;28;20256;-68
2022/03/24 12:42:41;;;;;;;6.95;4.10;;;19.50;46.90;;;;;;5050664;28;20183;-68
2022/03/24 12:45:12;;;;;;;4.88;4.45;;;19.60;46.90;;;;;;5050925;28;20683;-68
2022/03/24 12:47:43;;;;;;;6.88;4.35;;;19.60;47.00;;;;;;5051217;28;20214;-68
2022/03/24 12:50:15;;;;;;;3.85;3.53;;;19.60;47.10;;;;;;5050329;28;20182;-68
2022/03/24 12:52:57;;;;;;;6.32;4.15;;;19.60;47.10;;;;;;5051454;28;20206;-67
2022/03/24 12:55:32;;;;;;;6.43;4.35;;;19.70;47.20;;;;;;5050806;28;20183;-73
2022/03/24 12:58:02;;;;;;;8.85;5.25;;;19.70;47.30;;;;;;5050160;28;20211;-77